createdAt,value
2019-05-14T00:02:21.675Z,100042.16
2019-05-14T00:04:51.459Z,100054.95
2019-05-14T00:07:22.385Z,100054.05
2019-05-14T00:09:52.153Z,100057.73
2019-05-14T00:12:22.400Z,100054.91
2019-05-14T00:14:51.940Z,100055.98
2019-05-14T00:17:21.623Z,100061.33
2019-05-14T00:20:05.929Z,100057.13
2019-05-14T00:22:22.913Z,100067.05
2019-05-14T00:24:52.286Z,100065.64
2019-05-14T00:27:21.970Z,100086.23
2019-05-14T00:29:51.902Z,100067.17
2019-05-14T00:32:21.777Z,100075.16
2019-05-14T00:34:51.726Z,100072.80
2019-05-14T00:37:22.669Z,100056.30
2019-05-14T00:39:52.324Z,100063.36
2019-05-14T00:42:21.895Z,100060.25
2019-05-14T00:44:55.360Z,100061.27
2019-05-14T00:47:22.309Z,100056.85
2019-05-14T00:49:51.966Z,100058.89
2019-05-14T00:52:22.365Z,100051.51
2019-05-14T00:54:52.377Z,100058.77
2019-05-14T00:57:21.859Z,100049.31
2019-05-14T00:59:52.177Z,100051.00
2019-05-14T01:02:21.932Z,100058.15
2019-05-14T01:04:51.761Z,100060.27
2019-05-14T01:07:21.390Z,100067.86
2019-05-14T01:09:52.405Z,100074.53
2019-05-14T01:12:21.985Z,100069.44
2019-05-14T01:14:55.639Z,100070.45
2019-05-14T01:17:22.636Z,100069.45
2019-05-14T01:19:52.053Z,100067.72
2019-05-14T01:22:21.818Z,100064.21
2019-05-14T01:24:52.224Z,100066.23
2019-05-14T01:27:22.268Z,100056.82
2019-05-14T01:29:51.641Z,100055.34
2019-05-14T01:32:22.109Z,100050.16
2019-05-14T01:34:52.347Z,100057.84
2019-05-14T01:37:22.083Z,100056.39
2019-05-14T01:39:51.927Z,100062.87
2019-05-14T01:42:21.814Z,100054.66
2019-05-14T01:44:52.000Z,100066.75
2019-05-14T01:47:21.583Z,100057.14
2019-05-14T01:49:51.503Z,100049.75
2019-05-14T01:52:21.753Z,100051.61
2019-05-14T01:54:51.773Z,100038.38
2019-05-14T01:57:21.919Z,100036.16
2019-05-14T01:59:51.843Z,100025.42
2019-05-14T02:02:22.061Z,100034.48
2019-05-14T02:04:51.823Z,100038.12
2019-05-14T02:07:22.092Z,100037.83
2019-05-14T02:09:52.042Z,100028.20
2019-05-14T02:12:22.322Z,100015.62
2019-05-14T02:14:52.107Z,100019.51
2019-05-14T02:17:21.511Z,100022.94
2019-05-14T02:19:51.501Z,100004.19
2019-05-14T02:22:21.772Z,100017.13
2019-05-14T02:24:52.012Z,100009.80
2019-05-14T02:27:21.608Z,100007.31
2019-05-14T02:29:51.818Z,100008.79
2019-05-14T02:32:21.555Z,100002.22
2019-05-14T02:34:50.874Z,100007.30
2019-05-14T02:37:20.409Z,99996.69
2019-05-14T02:39:50.347Z,99996.59
2019-05-14T02:42:20.084Z,99991.31
2019-05-14T02:44:49.577Z,99990.94
2019-05-14T02:47:19.680Z,99982.34
2019-05-14T02:49:50.087Z,99998.34
2019-05-14T02:52:20.734Z,99986.69
2019-05-14T02:54:50.641Z,99984.81
2019-05-14T02:57:20.318Z,99984.62
2019-05-14T02:59:55.515Z,99983.33
2019-05-14T03:02:24.827Z,99982.51
2019-05-14T03:04:54.700Z,99982.69
2019-05-14T03:07:24.221Z,99982.58
2019-05-14T03:09:53.586Z,99979.99
2019-05-14T03:12:22.976Z,99984.62
2019-05-14T03:14:52.394Z,99971.86
2019-05-14T03:17:21.767Z,99983.30
2019-05-14T03:19:51.142Z,99991.45
2019-05-14T03:22:27.609Z,99986.53
2019-05-14T03:24:51.931Z,99977.40
2019-05-14T03:27:21.308Z,99981.81
2019-05-14T03:29:59.711Z,99978.02
2019-05-14T03:32:32.962Z,99979.05
2019-05-14T03:35:04.122Z,99975.79
2019-05-14T03:37:31.287Z,99968.33
2019-05-14T03:40:00.622Z,99977.47
2019-05-14T03:42:30.057Z,99978.03
2019-05-14T03:44:59.875Z,99983.64
2019-05-14T03:47:29.949Z,99981.14
2019-05-14T03:49:59.550Z,99974.23
2019-05-14T03:52:29.633Z,99971.73
2019-05-14T03:55:04.317Z,99974.33
2019-05-14T03:57:30.034Z,99979.67
2019-05-14T04:00:00.018Z,99976.23
2019-05-14T04:02:30.018Z,99970.98
2019-05-14T04:05:00.165Z,99975.15
2019-05-14T04:07:30.876Z,99973.20
2019-05-14T04:10:02.467Z,99972.77
2019-05-14T04:12:34.324Z,99972.38
2019-05-14T04:15:05.167Z,99981.61
2019-05-14T04:17:41.784Z,99975.33
2019-05-14T04:20:09.431Z,99981.41
2019-05-14T04:22:40.628Z,99983.99
2019-05-14T04:25:11.504Z,99985.20
2019-05-14T04:27:40.977Z,99991.84
2019-05-14T04:30:12.562Z,99994.70
2019-05-14T04:32:42.293Z,99986.50
2019-05-14T04:35:12.142Z,99976.33
2019-05-14T04:37:41.615Z,99981.13
2019-05-14T04:40:11.361Z,99983.14
2019-05-14T04:42:40.711Z,99980.47
2019-05-14T04:45:11.317Z,99979.23
2019-05-14T04:47:42.314Z,99983.50
2019-05-14T04:50:12.336Z,99992.63
2019-05-14T04:52:41.622Z,99986.43
2019-05-14T04:55:11.011Z,99992.34
2019-05-14T04:57:40.478Z,99997.30
2019-05-14T05:00:12.271Z,99991.95
2019-05-14T05:02:41.338Z,99996.00
2019-05-14T05:05:11.032Z,99993.16
2019-05-14T05:07:40.744Z,100002.20
2019-05-14T05:10:10.953Z,100009.48
2019-05-14T05:12:40.281Z,100010.48
2019-05-14T05:15:10.216Z,100011.77
2019-05-14T05:17:47.710Z,100012.54
2019-05-14T05:20:10.918Z,100009.95
2019-05-14T05:22:40.296Z,100013.45
2019-05-14T05:25:09.835Z,100012.98
2019-05-14T05:27:39.109Z,100008.58
2019-05-14T05:30:09.090Z,100008.92
2019-05-14T05:32:38.987Z,100017.28
2019-05-14T05:35:09.611Z,100020.52
2019-05-14T05:37:39.283Z,100017.11
2019-05-14T05:40:09.327Z,100017.02
2019-05-14T05:42:38.915Z,100011.94
2019-05-14T05:45:10.147Z,100006.16
2019-05-14T05:47:54.051Z,100009.65
2019-05-14T05:50:11.021Z,100003.09
2019-05-14T05:52:40.408Z,99998.39
2019-05-14T05:55:09.993Z,100006.06
2019-05-14T05:57:39.581Z,100008.18
2019-05-14T06:00:10.993Z,100009.44
2019-05-14T06:02:40.522Z,100022.10
2019-05-14T06:05:10.357Z,100007.41
2019-05-14T06:07:39.816Z,100012.58
2019-05-14T06:10:09.990Z,100021.16
2019-05-14T06:12:39.292Z,100014.69
2019-05-14T06:15:14.933Z,100020.94
2019-05-14T06:17:44.237Z,100025.29
2019-05-14T06:20:13.601Z,100029.61
2019-05-14T06:22:42.933Z,100039.30
2019-05-14T06:25:12.383Z,100050.33
2019-05-14T06:27:41.759Z,100046.09
2019-05-14T06:30:20.283Z,100055.49
2019-05-14T06:32:49.598Z,100047.30
2019-05-14T06:35:19.384Z,100048.21
2019-05-14T06:37:49.133Z,100046.02
2019-05-14T06:40:19.266Z,100053.55
2019-05-14T06:42:48.744Z,100049.45
2019-05-14T06:45:18.815Z,100050.14
2019-05-14T06:47:48.760Z,100052.99
2019-05-14T06:50:19.085Z,100051.05
2019-05-14T06:52:49.231Z,100049.02
2019-05-14T06:55:18.761Z,100054.63
2019-05-14T06:57:49.079Z,100056.13
2019-05-14T07:00:19.554Z,100057.42
2019-05-14T07:02:49.317Z,100065.17
2019-05-14T07:05:18.959Z,100062.21
2019-05-14T07:07:49.487Z,100065.56
2019-05-14T07:10:19.744Z,100072.55
2019-05-14T07:12:49.937Z,100072.11
2019-05-14T07:15:20.083Z,100072.44
2019-05-14T07:17:49.458Z,100070.05
2019-05-14T07:20:19.258Z,100076.64
2019-05-14T07:22:48.757Z,100082.06
2019-05-14T07:25:18.458Z,100080.36
2019-05-14T07:27:49.032Z,100076.57
2019-05-14T07:30:19.474Z,100080.55
2019-05-14T07:32:48.849Z,100088.61
2019-05-14T07:35:18.558Z,100090.12
2019-05-14T07:37:48.839Z,100086.33
2019-05-14T07:40:19.203Z,100084.70
2019-05-14T07:42:48.933Z,100086.59
2019-05-14T07:45:19.177Z,100086.02
2019-05-14T07:47:49.315Z,100087.78
2019-05-14T07:50:19.725Z,100090.94
2019-05-14T07:52:49.877Z,100081.92
2019-05-14T07:55:19.364Z,100088.69
2019-05-14T07:57:48.629Z,100086.13
2019-05-14T08:00:19.421Z,100092.84
2019-05-14T08:02:49.238Z,100087.59
2019-05-14T08:05:18.955Z,100092.65
2019-05-14T08:07:48.257Z,100094.21
2019-05-14T08:10:18.596Z,100099.55
2019-05-14T08:12:48.589Z,100099.69
2019-05-14T08:15:25.346Z,100107.27
2019-05-14T08:17:54.743Z,100104.30
2019-05-14T08:20:24.133Z,100100.97
2019-05-14T08:22:53.537Z,100106.94
2019-05-14T08:25:22.942Z,100104.55
2019-05-14T08:27:52.255Z,100104.13
2019-05-14T08:30:21.955Z,100102.30
2019-05-14T08:32:51.374Z,100101.97
2019-05-14T08:35:20.747Z,100097.77
2019-05-14T08:38:03.459Z,100104.80
2019-05-14T08:40:21.142Z,100100.81
2019-05-14T08:42:50.569Z,100095.91
2019-05-14T08:45:19.951Z,100101.61
2019-05-14T08:47:49.297Z,100100.67
2019-05-14T08:50:19.441Z,100099.77
2019-05-14T08:52:48.771Z,100099.84
2019-05-14T08:55:18.545Z,100100.73
2019-05-14T08:57:48.992Z,100106.03
2019-05-14T09:00:30.979Z,100100.09
2019-05-14T09:03:03.118Z,100106.09
2019-05-14T09:05:31.705Z,100111.48
2019-05-14T09:08:01.031Z,100107.52
2019-05-14T09:10:30.480Z,100115.19
2019-05-14T09:13:02.689Z,100109.11
2019-05-14T09:15:30.948Z,100109.03
2019-05-14T09:18:03.427Z,100111.15
2019-05-14T09:20:31.441Z,100114.53
2019-05-14T09:23:00.849Z,100114.45
2019-05-14T09:25:30.225Z,100111.70
2019-05-14T09:27:59.593Z,100115.11
2019-05-14T09:30:29.113Z,100099.98
2019-05-14T09:32:59.360Z,100104.99
2019-05-14T09:35:29.279Z,100101.72
2019-05-14T09:37:59.307Z,100103.48
2019-05-14T09:40:29.105Z,100100.84
2019-05-14T09:42:58.880Z,100105.42
2019-05-14T09:45:28.343Z,100105.89
2019-05-14T09:47:58.545Z,100103.64
2019-05-14T09:50:29.172Z,100096.61
2019-05-14T09:52:59.444Z,100096.14
2019-05-14T09:55:30.068Z,100095.53
2019-05-14T09:57:59.280Z,100098.89
2019-05-14T10:00:28.697Z,100098.03
2019-05-14T10:02:59.675Z,100094.05
2019-05-14T10:05:29.509Z,100095.66
2019-05-14T10:07:59.384Z,100098.41
2019-05-14T10:10:30.521Z,100092.16
2019-05-14T10:13:01.406Z,100092.08
2019-05-14T10:15:31.393Z,100096.91
2019-05-14T10:18:00.827Z,100100.31
2019-05-14T10:20:40.506Z,100112.16
2019-05-14T10:23:01.443Z,100114.39
2019-05-14T10:25:30.859Z,100113.38
2019-05-14T10:28:00.375Z,100109.55
2019-05-14T10:30:29.855Z,100110.79
2019-05-14T10:33:09.169Z,100109.38
2019-05-14T10:35:30.293Z,100104.31
2019-05-14T10:38:00.145Z,100110.17
2019-05-14T10:40:29.638Z,100118.05
2019-05-14T10:42:59.030Z,100115.33
2019-05-14T10:45:28.987Z,100100.12
2019-05-14T10:48:00.910Z,100109.30
2019-05-14T10:50:30.289Z,100111.97
2019-05-14T10:52:59.836Z,100109.50
2019-05-14T10:55:29.378Z,100100.99
2019-05-14T10:57:58.725Z,100093.32
2019-05-14T11:00:35.680Z,100093.97
2019-05-14T11:03:07.784Z,100094.61
2019-05-14T11:05:41.147Z,100092.69
2019-05-14T11:08:11.675Z,100092.81
2019-05-14T11:10:42.142Z,100095.80
2019-05-14T11:13:09.457Z,100094.08
2019-05-14T11:15:39.477Z,100096.18
2019-05-14T11:18:09.135Z,100097.39
2019-05-14T11:20:42.204Z,100086.14
2019-05-14T11:23:09.534Z,100087.39
2019-05-14T11:25:39.752Z,100082.60
2019-05-14T11:28:09.027Z,100077.42
2019-05-14T11:30:39.206Z,100079.89
2019-05-14T11:33:09.204Z,100086.62
2019-05-14T11:35:39.469Z,100088.64
2019-05-14T11:38:27.918Z,100082.43
2019-05-14T11:40:40.397Z,100089.42
2019-05-14T11:43:09.752Z,100090.63
2019-05-14T11:45:39.805Z,100079.29
2019-05-14T11:48:09.197Z,100089.33
2019-05-14T11:50:38.551Z,100089.08
2019-05-14T11:53:08.532Z,100084.67
2019-05-14T11:55:38.858Z,100077.69
2019-05-14T11:58:08.836Z,100075.31
2019-05-14T12:00:38.873Z,100076.39
2019-05-14T12:03:09.173Z,100072.69
2019-05-14T12:05:38.975Z,100068.81
2019-05-14T12:08:08.730Z,100076.95
2019-05-14T12:10:38.818Z,100071.48
2019-05-14T12:13:08.632Z,100080.92
2019-05-14T12:15:38.989Z,100075.02
2019-05-14T12:18:10.336Z,100076.31
2019-05-14T12:20:39.873Z,100068.91
2019-05-14T12:23:09.263Z,100069.55
2019-05-14T12:25:38.558Z,100069.16
2019-05-14T12:28:13.435Z,100068.05
2019-05-14T12:30:39.647Z,100065.41
2019-05-14T12:33:09.412Z,100072.22
2019-05-14T12:35:40.330Z,100064.33
2019-05-14T12:38:10.120Z,100068.30
2019-05-14T12:40:39.693Z,100061.10
2019-05-14T12:43:09.720Z,100074.50
2019-05-14T12:45:39.652Z,100070.27
2019-05-14T12:48:09.387Z,100062.60
2019-05-14T12:50:39.461Z,100058.42
2019-05-14T12:53:09.045Z,100061.05
2019-05-14T12:55:40.206Z,100057.51
2019-05-14T12:58:10.257Z,100056.09
2019-05-14T13:00:40.546Z,100052.30
2019-05-14T13:03:09.915Z,100049.89
2019-05-14T13:05:39.229Z,100052.05
2019-05-14T13:08:11.502Z,100055.66
2019-05-14T13:10:41.208Z,100052.98
2019-05-14T13:13:10.686Z,100042.17
2019-05-14T13:15:40.092Z,100040.63
2019-05-14T13:18:09.437Z,100046.02
2019-05-14T13:20:41.167Z,100039.98
2019-05-14T13:23:10.601Z,100045.23
2019-05-14T13:25:40.129Z,100046.45
2019-05-14T13:28:09.514Z,100047.30
2019-05-14T13:30:48.895Z,100047.30
2019-05-14T13:33:19.291Z,100040.06
2019-05-14T13:35:48.952Z,100042.00
2019-05-14T13:38:18.393Z,100038.04
2019-05-14T13:40:49.097Z,100048.63
2019-05-14T13:43:19.226Z,100046.45
2019-05-14T13:45:49.515Z,100043.04
2019-05-14T13:48:19.274Z,100046.52
2019-05-14T13:50:49.232Z,100040.09
2019-05-14T13:53:19.141Z,100040.97
2019-05-14T13:55:57.220Z,100045.09
2019-05-14T13:58:20.846Z,100044.28
2019-05-14T14:00:52.084Z,100047.47
2019-05-14T14:03:21.714Z,100055.92
2019-05-14T14:05:51.089Z,100051.85
2019-05-14T14:08:20.475Z,100046.64
2019-05-14T14:10:53.418Z,100054.25
2019-05-14T14:13:20.839Z,100052.88
2019-05-14T14:15:50.255Z,100046.64
2019-05-14T14:18:20.928Z,100056.06
2019-05-14T14:20:51.588Z,100061.09
2019-05-14T14:23:26.851Z,100060.96
2019-05-14T14:25:54.620Z,100063.38
2019-05-14T14:28:23.346Z,100057.08
2019-05-14T14:30:52.848Z,100056.31
2019-05-14T14:33:22.219Z,100052.71
2019-05-14T14:35:51.536Z,100060.80
2019-05-14T14:38:20.984Z,100064.84
2019-05-14T14:40:50.343Z,100060.80
2019-05-14T14:43:19.724Z,100058.90
2019-05-14T14:45:52.012Z,100059.42
2019-05-14T14:48:21.253Z,100062.77
2019-05-14T14:50:50.648Z,100067.39
2019-05-14T14:53:39.511Z,100066.92
2019-05-14T14:55:51.261Z,100068.98
2019-05-14T14:58:20.572Z,100065.02
2019-05-14T15:00:59.465Z,100071.67
2019-05-14T15:03:29.713Z,100064.94
2019-05-14T15:05:59.095Z,100063.43
2019-05-14T15:08:29.279Z,100052.02
2019-05-14T15:10:59.451Z,100059.09
2019-05-14T15:13:28.946Z,100048.58
2019-05-14T15:16:01.058Z,100052.36
2019-05-14T15:18:29.543Z,100048.48
2019-05-14T15:20:58.974Z,100046.15
2019-05-14T15:23:28.752Z,100048.27
2019-05-14T15:25:58.987Z,100041.75
2019-05-14T15:28:28.759Z,100038.89
2019-05-14T15:30:59.486Z,100038.76
2019-05-14T15:33:29.505Z,100036.17
2019-05-14T15:35:58.906Z,100029.72
2019-05-14T15:38:30.716Z,100032.30
2019-05-14T15:40:59.809Z,100034.33
2019-05-14T15:43:29.173Z,100030.98
2019-05-14T15:46:02.724Z,100030.59
2019-05-14T15:48:32.230Z,100027.84
2019-05-14T15:51:01.724Z,100020.81
2019-05-14T15:53:31.028Z,100020.05
2019-05-14T15:56:00.370Z,100022.80
2019-05-14T15:58:30.379Z,100025.43
2019-05-14T16:01:01.418Z,100015.90
2019-05-14T16:03:30.977Z,100011.47
2019-05-14T16:06:00.343Z,100011.39
2019-05-14T16:08:29.829Z,100011.83
2019-05-14T16:11:00.320Z,100013.20
2019-05-14T16:13:29.886Z,100010.30
2019-05-14T16:15:59.188Z,100013.81
2019-05-14T16:18:29.103Z,100011.31
2019-05-14T16:20:59.474Z,100010.76
2019-05-14T16:23:28.885Z,100005.30
2019-05-14T16:25:59.011Z,100009.72
2019-05-14T16:28:28.837Z,100006.42
2019-05-14T16:31:01.195Z,100013.89
2019-05-14T16:33:30.608Z,100016.83
2019-05-14T16:35:59.992Z,100016.34
2019-05-14T16:38:29.367Z,100029.19
2019-05-14T16:40:59.712Z,100025.92
2019-05-14T16:43:32.406Z,100030.16
2019-05-14T16:46:00.843Z,100026.20
2019-05-14T16:48:30.244Z,100023.34
2019-05-14T16:50:59.626Z,100032.78
2019-05-14T16:53:28.998Z,100028.59
2019-05-14T16:55:58.433Z,100026.52
2019-05-14T16:58:29.181Z,100028.20
2019-05-14T17:00:59.043Z,100040.64
2019-05-14T17:03:29.757Z,100021.50
2019-05-14T17:05:59.521Z,100019.00
2019-05-14T17:08:28.795Z,100014.22
2019-05-14T17:10:59.055Z,100015.53
2019-05-14T17:13:28.723Z,100013.18
2019-05-14T17:15:58.866Z,100014.98
2019-05-14T17:18:28.809Z,100029.73
2019-05-14T17:20:59.446Z,100024.27
2019-05-14T17:23:29.058Z,100033.85
2019-05-14T17:25:58.492Z,100038.70
2019-05-14T17:28:28.691Z,100034.09
2019-05-14T17:30:58.480Z,100038.95
2019-05-14T17:33:29.162Z,100030.30
2019-05-14T17:35:58.954Z,100026.99
2019-05-14T17:38:29.181Z,100029.02
2019-05-14T17:40:59.780Z,100022.66
2019-05-14T17:43:31.108Z,100031.84
2019-05-14T17:46:00.572Z,100030.47
2019-05-14T17:48:30.136Z,100028.67
2019-05-14T17:50:59.525Z,100024.48
2019-05-14T17:53:29.252Z,100023.83
2019-05-14T17:55:59.327Z,100035.52
2019-05-14T17:58:29.142Z,100034.30
2019-05-14T18:00:58.726Z,100039.31
2019-05-14T18:03:29.069Z,100040.14
2019-05-14T18:06:01.256Z,100041.20
2019-05-14T18:08:30.656Z,100043.93
2019-05-14T18:11:01.829Z,100044.86
2019-05-14T18:13:31.459Z,100045.50
2019-05-14T18:16:09.019Z,100048.55
2019-05-14T18:18:37.977Z,100047.41
2019-05-14T18:21:09.433Z,100054.02
2019-05-14T18:23:41.910Z,100065.40
2019-05-14T18:26:10.824Z,100064.63
2019-05-14T18:28:40.474Z,100056.13
2019-05-14T18:31:10.062Z,100065.55
2019-05-14T18:33:40.330Z,100063.05
2019-05-14T18:36:10.382Z,100067.38
2019-05-14T18:38:39.879Z,100057.97
2019-05-14T18:41:09.297Z,100061.68
2019-05-14T18:43:39.240Z,100057.37
2019-05-14T18:46:12.375Z,100048.70
2019-05-14T18:48:41.822Z,100043.70
2019-05-14T18:51:11.086Z,100048.62
2019-05-14T18:53:40.501Z,100049.48
2019-05-14T18:56:20.489Z,100047.88
2019-05-14T18:58:40.971Z,100059.71
2019-05-14T19:01:10.460Z,100064.88
2019-05-14T19:03:40.036Z,100060.84
2019-05-14T19:06:09.443Z,100058.27
2019-05-14T19:08:39.486Z,100060.84
2019-05-14T19:11:09.196Z,100049.16
2019-05-14T19:13:39.148Z,100048.17
2019-05-14T19:16:11.597Z,100043.95
2019-05-14T19:18:41.015Z,100041.30
2019-05-14T19:21:10.320Z,100051.14
2019-05-14T19:23:39.738Z,100042.66
2019-05-14T19:26:09.664Z,100040.16
2019-05-14T19:28:39.200Z,100031.44
2019-05-14T19:31:09.186Z,100032.11
2019-05-14T19:33:38.724Z,100029.06
2019-05-14T19:36:08.813Z,100023.39
2019-05-14T19:38:39.081Z,100020.34
2019-05-14T19:41:08.982Z,100013.08
2019-05-14T19:43:38.263Z,100013.69
2019-05-14T19:46:08.818Z,100020.88
2019-05-14T19:48:38.411Z,100029.98
2019-05-14T19:51:08.381Z,100033.92
2019-05-14T19:53:39.206Z,100043.48
2019-05-14T19:56:08.805Z,100042.34
2019-05-14T19:58:38.568Z,100034.00
2019-05-14T20:01:16.177Z,100032.63
2019-05-14T20:03:45.547Z,100029.14
2019-05-14T20:06:14.945Z,100032.03
2019-05-14T20:08:44.417Z,100031.18
2019-05-14T20:11:13.784Z,100032.69
2019-05-14T20:13:43.182Z,100036.48
2019-05-14T20:16:12.789Z,100035.20
2019-05-14T20:18:42.207Z,100037.84
2019-05-14T20:21:11.520Z,100029.97
2019-05-14T20:23:40.937Z,100035.34
2019-05-14T20:26:10.232Z,100028.23
2019-05-14T20:28:39.541Z,100020.34
2019-05-14T20:31:21.129Z,100022.77
2019-05-14T20:33:50.513Z,100019.87
2019-05-14T20:36:19.816Z,100030.05
2019-05-14T20:38:49.229Z,100034.13
2019-05-14T20:41:18.723Z,100033.14
2019-05-14T20:43:48.158Z,100030.78
2019-05-14T20:46:18.530Z,100029.42
2019-05-14T20:48:48.251Z,100035.04
2019-05-14T20:51:18.531Z,100033.14
2019-05-14T20:53:48.821Z,100031.56
2019-05-14T20:56:18.974Z,100026.99
2019-05-14T20:58:48.574Z,100014.96
2019-05-14T21:01:18.512Z,99996.06
2019-05-14T21:03:48.417Z,99996.84
2019-05-14T21:06:18.854Z,100005.94
2019-05-14T21:08:49.064Z,100002.16
2019-05-14T21:11:19.113Z,100001.83
2019-05-14T21:13:50.324Z,100005.48
2019-05-14T21:16:28.351Z,100003.37
2019-05-14T21:18:59.229Z,99999.03
2019-05-14T21:21:28.847Z,99995.09
2019-05-14T21:23:58.786Z,99986.69
2019-05-14T21:26:29.176Z,99978.33
2019-05-14T21:28:59.488Z,99978.41
2019-05-14T21:31:31.944Z,99991.00
2019-05-14T21:34:01.264Z,99984.70
2019-05-14T21:36:30.623Z,99982.95
2019-05-14T21:39:00.035Z,99987.96
2019-05-14T21:41:29.411Z,99989.79
2019-05-14T21:44:01.331Z,99983.42
2019-05-14T21:46:31.722Z,99973.47
2019-05-14T21:49:01.226Z,99971.28
2019-05-14T21:51:30.593Z,99970.08
2019-05-14T21:53:59.928Z,99970.14
2019-05-14T21:56:29.345Z,99972.34
2019-05-14T21:59:01.325Z,99978.77
2019-05-14T22:01:30.957Z,99982.56
2019-05-14T22:04:00.936Z,99973.04
2019-05-14T22:06:30.422Z,99980.84
2019-05-14T22:08:59.824Z,99975.38
2019-05-14T22:11:29.599Z,99959.17
2019-05-14T22:13:59.308Z,99952.66
2019-05-14T22:16:31.637Z,99954.09
2019-05-14T22:19:01.030Z,99965.36
2019-05-14T22:21:30.442Z,99970.13
2019-05-14T22:23:59.831Z,99974.92
2019-05-14T22:26:29.209Z,99979.75
2019-05-14T22:28:58.787Z,99990.88
2019-05-14T22:31:28.976Z,99986.63
2019-05-14T22:33:59.621Z,99987.02
2019-05-14T22:36:29.470Z,99984.05
2019-05-14T22:38:59.080Z,99977.11
2019-05-14T22:41:29.088Z,99962.47
2019-05-14T22:44:00.006Z,99958.76
2019-05-14T22:46:39.941Z,99958.44
2019-05-14T22:49:09.211Z,99962.37
2019-05-14T22:51:38.927Z,99966.02
2019-05-14T22:54:08.802Z,99965.63
2019-05-14T22:56:39.163Z,99966.02
2019-05-14T22:59:08.774Z,99963.13
2019-05-14T23:01:42.040Z,99968.28
2019-05-14T23:04:11.458Z,99965.92
2019-05-14T23:06:40.833Z,99960.92
2019-05-14T23:09:10.376Z,99950.69
2019-05-14T23:11:39.828Z,99948.19
2019-05-14T23:14:09.297Z,99945.54
2019-05-14T23:16:42.082Z,99939.03
2019-05-14T23:19:11.566Z,99925.41
2019-05-14T23:21:41.008Z,99919.87
2019-05-14T23:24:10.434Z,99910.11
2019-05-14T23:26:39.803Z,99903.67
2019-05-14T23:29:09.170Z,99906.24
2019-05-14T23:31:45.701Z,99901.53
2019-05-14T23:34:15.092Z,99908.28
2019-05-14T23:36:44.459Z,99906.67
2019-05-14T23:39:13.978Z,99916.08
2019-05-14T23:41:43.627Z,99917.13
2019-05-14T23:44:13.100Z,99920.55
2019-05-14T23:46:42.643Z,99922.20
2019-05-14T23:49:12.026Z,99929.09
2019-05-14T23:51:41.518Z,99926.13
2019-05-14T23:54:10.946Z,99931.14
2019-05-14T23:56:40.538Z,99940.15
2019-05-14T23:59:09.920Z,99926.98
